Time;durP1;ratioP1;P1;durP2;ratioP2;P2;SDS_P1;SDS_P2;PMS_P1;PMS_P2;Temp;Humidity;BMP_temperature;BMP_pressure;BME280_temperature;BME280_humidity;BME280_pressure;Samples;Min_cycle;Max_cycle;Signal;HPM_P1;HPM_P2
2024/01/19 00:01:57;;;;;;;11.63;6.45;;;;;;;;;;8204731;28;20053;-63
2024/01/19 00:05:57;;;;;;;8.98;5.40;;;;;;;;;;8204158;28;21357;-63
2024/01/19 00:09:57;;;;;;;10.10;5.93;;;;;;;;;;8208022;28;20449;-62
2024/01/19 00:13:58;;;;;;;9.80;5.45;;;;;;;;;;8205550;28;20487;-63
2024/01/19 00:17:58;;;;;;;13.32;6.20;;;;;;;;;;8211685;28;20042;-62
2024/01/19 00:21:58;;;;;;;11.52;5.93;;;;;;;;;;8220040;28;20519;-63
2024/01/19 00:25:58;;;;;;;11.50;6.47;;;;;;;;;;8212375;28;20022;-62
2024/01/19 00:29:58;;;;;;;13.10;6.97;;;;;;;;;;8211523;28;20083;-63
2024/01/19 00:33:59;;;;;;;12.18;6.68;;;;;;;;;;8210126;28;20289;-61
2024/01/19 00:37:59;;;;;;;14.18;7.00;;;;;;;;;;8210469;28;20029;-61
2024/01/19 00:41:59;;;;;;;13.57;6.90;;;;;;;;;;8208494;28;20670;-61
2024/01/19 00:45:59;;;;;;;13.82;6.93;;;;;;;;;;8213283;28;20042;-61
2024/01/19 00:49:59;;;;;;;12.35;7.43;;;;;;;;;;8212413;28;20053;-61
2024/01/19 00:53:59;;;;;;;12.50;7.45;;;;;;;;;;8208444;28;20061;-61
2024/01/19 00:58:00;;;;;;;15.73;7.68;;;;;;;;;;8211308;28;20029;-62
2024/01/19 01:02:00;;;;;;;14.80;8.45;;;;;;;;;;8211183;28;20132;-61
2024/01/19 01:06:00;;;;;;;24.98;8.73;;;;;;;;;;8208418;28;20160;-61
2024/01/19 01:10:00;;;;;;;14.82;8.10;;;;;;;;;;8206366;28;20026;-61
2024/01/19 01:14:01;;;;;;;12.57;8.10;;;;;;;;;;8216722;28;20026;-61
2024/01/19 01:18:01;;;;;;;16.95;8.98;;;;;;;;;;8208485;28;20393;-61
2024/01/19 01:22:02;;;;;;;15.68;8.20;;;;;;;;;;8210339;28;20025;-63
2024/01/19 01:26:02;;;;;;;14.57;8.38;;;;;;;;;;8217638;28;20835;-63
2024/01/19 01:30:07;;;;;;;15.77;8.38;;;;;;;;;;8204985;28;20468;-63
2024/01/19 01:34:07;;;;;;;10.98;7.78;;;;;;;;;;8211365;28;20141;-63
2024/01/19 01:38:08;;;;;;;14.60;8.25;;;;;;;;;;8206143;28;20053;-62
2024/01/19 01:42:08;;;;;;;13.40;8.10;;;;;;;;;;8203760;28;20030;-63
2024/01/19 01:46:08;;;;;;;12.88;8.63;;;;;;;;;;8206095;28;20042;-63
2024/01/19 01:50:08;;;;;;;13.63;8.50;;;;;;;;;;8215498;28;20611;-65
2024/01/19 01:54:08;;;;;;;13.98;8.65;;;;;;;;;;8215106;28;21915;-63
2024/01/19 01:58:09;;;;;;;15.00;8.32;;;;;;;;;;8208862;28;20388;-63
2024/01/19 02:02:09;;;;;;;16.27;7.97;;;;;;;;;;8208589;28;20041;-62
2024/01/19 02:06:09;;;;;;;16.00;8.20;;;;;;;;;;8208491;28;20030;-62
2024/01/19 02:10:09;;;;;;;17.90;9.48;;;;;;;;;;8208528;28;20029;-63
2024/01/19 02:14:10;;;;;;;17.07;9.37;;;;;;;;;;8212090;28;20053;-62
2024/01/19 02:18:12;;;;;;;13.93;8.10;;;;;;;;;;8211052;28;20896;-63
2024/01/19 02:22:12;;;;;;;16.05;8.27;;;;;;;;;;8218336;28;20096;-62
2024/01/19 02:26:13;;;;;;;12.27;8.13;;;;;;;;;;8213293;28;20410;-63
2024/01/19 02:30:13;;;;;;;11.95;8.10;;;;;;;;;;8212973;28;20308;-62
2024/01/19 02:34:13;;;;;;;16.87;8.63;;;;;;;;;;8215981;28;20060;-61
2024/01/19 02:38:13;;;;;;;13.07;7.63;;;;;;;;;;8214431;28;20851;-62
2024/01/19 02:42:14;;;;;;;15.63;8.77;;;;;;;;;;8213885;28;20392;-61
2024/01/19 02:46:15;;;;;;;14.07;8.07;;;;;;;;;;8213122;28;20503;-61
2024/01/19 02:50:15;;;;;;;14.35;7.05;;;;;;;;;;8217851;28;20029;-61
2024/01/19 02:54:15;;;;;;;15.75;8.50;;;;;;;;;;8214464;28;20062;-61
2024/01/19 02:58:15;;;;;;;13.38;8.63;;;;;;;;;;8216544;28;20026;-61
2024/01/19 03:02:16;;;;;;;16.30;8.93;;;;;;;;;;8211465;28;20046;-60
2024/01/19 03:06:16;;;;;;;12.65;8.00;;;;;;;;;;8219343;28;21024;-62
2024/01/19 03:10:16;;;;;;;13.95;8.35;;;;;;;;;;8212549;28;20030;-63
2024/01/19 03:14:16;;;;;;;13.35;8.18;;;;;;;;;;8215608;28;20029;-63
2024/01/19 03:18:18;;;;;;;11.77;7.13;;;;;;;;;;8211871;28;20125;-63
2024/01/19 03:22:18;;;;;;;11.10;6.95;;;;;;;;;;8215792;28;20220;-62
2024/01/19 03:26:18;;;;;;;12.00;7.47;;;;;;;;;;8212400;28;20087;-62
2024/01/19 03:30:19;;;;;;;11.57;7.13;;;;;;;;;;8214209;28;20472;-63
2024/01/19 03:34:20;;;;;;;13.93;8.15;;;;;;;;;;8216716;28;20034;-62
2024/01/19 03:38:20;;;;;;;12.73;7.60;;;;;;;;;;8212425;28;20105;-62
2024/01/19 03:42:20;;;;;;;14.48;7.45;;;;;;;;;;8214994;28;20030;-62
2024/01/19 03:46:20;;;;;;;14.93;7.78;;;;;;;;;;8213397;28;20644;-62
2024/01/19 03:50:22;;;;;;;14.85;8.05;;;;;;;;;;8213024;28;20743;-63
2024/01/19 03:54:22;;;;;;;25.05;10.23;;;;;;;;;;8212270;28;20029;-63
2024/01/19 03:58:22;;;;;;;21.02;8.77;;;;;;;;;;8215229;28;20060;-63
2024/01/19 04:02:22;;;;;;;17.27;7.93;;;;;;;;;;8216061;28;20037;-63
2024/01/19 04:06:23;;;;;;;17.95;8.88;;;;;;;;;;8208387;28;20592;-61
2024/01/19 04:10:23;;;;;;;18.73;8.02;;;;;;;;;;8202744;28;20727;-61
2024/01/19 04:14:23;;;;;;;13.30;7.10;;;;;;;;;;8206945;28;20030;-61
2024/01/19 04:18:24;;;;;;;19.63;8.60;;;;;;;;;;8202581;28;20471;-62
2024/01/19 04:22:25;;;;;;;17.40;8.48;;;;;;;;;;8206775;28;20547;-62
2024/01/19 04:26:27;;;;;;;21.15;9.35;;;;;;;;;;8207544;28;20018;-62
2024/01/19 04:30:28;;;;;;;15.05;7.57;;;;;;;;;;8207122;28;20042;-62
2024/01/19 04:34:28;;;;;;;17.98;8.85;;;;;;;;;;8213942;28;20090;-62
2024/01/19 04:38:28;;;;;;;15.10;7.85;;;;;;;;;;8207606;28;20065;-61
2024/01/19 04:42:28;;;;;;;14.23;7.88;;;;;;;;;;8212883;28;20038;-62
2024/01/19 04:46:28;;;;;;;11.50;6.93;;;;;;;;;;8210148;28;20719;-61
2024/01/19 04:50:28;;;;;;;11.57;7.25;;;;;;;;;;8210702;28;20026;-62
2024/01/19 04:54:29;;;;;;;9.52;6.18;;;;;;;;;;8210405;28;20121;-62
2024/01/19 04:58:29;;;;;;;10.98;6.22;;;;;;;;;;8209228;28;20469;-61
2024/01/19 05:02:32;;;;;;;8.73;6.57;;;;;;;;;;8212635;28;20138;-63
2024/01/19 05:06:32;;;;;;;10.33;6.17;;;;;;;;;;8209196;28;20022;-62
2024/01/19 05:10:34;;;;;;;8.70;5.55;;;;;;;;;;8215584;28;20096;-62
2024/01/19 05:14:34;;;;;;;12.27;6.63;;;;;;;;;;8213407;28;20034;-62
2024/01/19 05:18:34;;;;;;;11.18;6.25;;;;;;;;;;8209658;28;20061;-62
2024/01/19 05:22:34;;;;;;;11.25;6.90;;;;;;;;;;8211465;28;20128;-62
2024/01/19 05:26:34;;;;;;;9.47;5.67;;;;;;;;;;8219421;28;20533;-62
2024/01/19 05:30:35;;;;;;;11.77;5.60;;;;;;;;;;8216718;28;20789;-62
2024/01/19 05:34:35;;;;;;;10.40;6.15;;;;;;;;;;8217622;28;20291;-62
2024/01/19 05:38:35;;;;;;;9.43;5.78;;;;;;;;;;8215316;28;20831;-61
2024/01/19 05:42:35;;;;;;;9.00;5.65;;;;;;;;;;8218058;28;20446;-62
2024/01/19 05:46:35;;;;;;;13.40;6.07;;;;;;;;;;8213784;28;20034;-62
2024/01/19 05:50:37;;;;;;;9.57;5.43;;;;;;;;;;8219620;28;20068;-62
2024/01/19 05:54:37;;;;;;;11.35;5.28;;;;;;;;;;8210688;28;20030;-61
2024/01/19 05:58:37;;;;;;;11.32;6.30;;;;;;;;;;8210829;28;20065;-62
2024/01/19 06:02:38;;;;;;;18.48;8.73;;;;;;;;;;8212711;28;20631;-61
2024/01/19 06:06:38;;;;;;;14.80;7.57;;;;;;;;;;8207656;28;20033;-63
2024/01/19 06:10:38;;;;;;;13.40;6.60;;;;;;;;;;8211506;28;20506;-63
2024/01/19 06:14:38;;;;;;;12.95;5.43;;;;;;;;;;8210389;28;20030;-62
2024/01/19 06:18:38;;;;;;;8.18;5.28;;;;;;;;;;8212094;28;20045;-62
2024/01/19 06:22:38;;;;;;;13.35;6.10;;;;;;;;;;8212027;28;20328;-63
2024/01/19 06:26:42;;;;;;;29.70;11.73;;;;;;;;;;8214719;28;20065;-61
2024/01/19 06:30:42;;;;;;;30.20;13.27;;;;;;;;;;8213826;28;20044;-61
2024/01/19 06:34:44;;;;;;;25.30;11.10;;;;;;;;;;8214253;28;20018;-61
2024/01/19 06:38:44;;;;;;;20.50;9.75;;;;;;;;;;8214294;28;20143;-63
2024/01/19 06:42:45;;;;;;;9.98;6.13;;;;;;;;;;8217420;28;20034;-63
2024/01/19 06:46:45;;;;;;;8.43;5.25;;;;;;;;;;8217256;28;20050;-63
2024/01/19 06:50:45;;;;;;;12.40;5.75;;;;;;;;;;8219534;28;20345;-62
2024/01/19 06:54:46;;;;;;;9.32;5.32;;;;;;;;;;8217033;28;20029;-62
2024/01/19 06:58:46;;;;;;;12.23;5.38;;;;;;;;;;8216184;28;20551;-67
2024/01/19 07:02:46;;;;;;;9.32;4.72;;;;;;;;;;8218560;28;20506;-62
2024/01/19 07:06:46;;;;;;;8.48;4.60;;;;;;;;;;8223213;28;20121;-62
2024/01/19 07:10:47;;;;;;;8.45;4.22;;;;;;;;;;8218089;28;20033;-62
2024/01/19 07:14:47;;;;;;;8.80;4.90;;;;;;;;;;8218281;28;20031;-62
2024/01/19 07:18:47;;;;;;;10.10;5.65;;;;;;;;;;8212842;28;20046;-62
2024/01/19 07:22:49;;;;;;;8.38;4.60;;;;;;;;;;8215676;28;20117;-62
2024/01/19 07:26:49;;;;;;;9.20;5.10;;;;;;;;;;8217259;28;20916;-63
2024/01/19 07:30:49;;;;;;;7.05;4.50;;;;;;;;;;8220841;28;20026;-62
2024/01/19 07:34:50;;;;;;;8.13;4.70;;;;;;;;;;8216586;28;20017;-62
2024/01/19 07:38:50;;;;;;;20.23;11.23;;;;;;;;;;8213643;28;20581;-62
2024/01/19 07:42:51;;;;;;;21.80;8.18;;;;;;;;;;8213434;28;20028;-60
2024/01/19 07:46:51;;;;;;;13.73;4.97;;;;;;;;;;8216969;28;21201;-61
2024/01/19 07:50:51;;;;;;;9.80;4.97;;;;;;;;;;8219730;28;20320;-61
2024/01/19 07:54:51;;;;;;;9.35;5.35;;;;;;;;;;8215630;28;20553;-62
2024/01/19 07:58:52;;;;;;;8.20;4.78;;;;;;;;;;8217383;28;20810;-63
2024/01/19 08:02:52;;;;;;;7.20;4.43;;;;;;;;;;8214271;28;20219;-63
2024/01/19 08:06:52;;;;;;;8.60;5.25;;;;;;;;;;8219360;28;20975;-63
2024/01/19 08:10:52;;;;;;;8.15;5.13;;;;;;;;;;8228193;28;20030;-63
2024/01/19 08:14:55;;;;;;;8.25;5.07;;;;;;;;;;8227003;28;20029;-62
2024/01/19 08:18:56;;;;;;;8.80;5.10;;;;;;;;;;8226828;28;20034;-63
2024/01/19 08:22:56;;;;;;;10.73;5.78;;;;;;;;;;8226842;28;20026;-63
2024/01/19 08:26:56;;;;;;;14.37;5.73;;;;;;;;;;8228116;28;20758;-63
2024/01/19 08:30:57;;;;;;;10.32;5.65;;;;;;;;;;8225239;28;23531;-63
2024/01/19 08:34:57;;;;;;;11.95;5.50;;;;;;;;;;8224322;28;20061;-62
2024/01/19 08:38:57;;;;;;;21.92;10.88;;;;;;;;;;8222581;28;20069;-62
2024/01/19 08:42:57;;;;;;;13.60;5.85;;;;;;;;;;8221808;28;20570;-62
2024/01/19 08:46:57;;;;;;;9.60;4.95;;;;;;;;;;8223491;28;20525;-62
2024/01/19 08:50:58;;;;;;;16.63;8.52;;;;;;;;;;8225616;28;20034;-62
2024/01/19 08:54:58;;;;;;;17.92;7.90;;;;;;;;;;8224423;28;20030;-62
2024/01/19 08:58:58;;;;;;;6.83;4.50;;;;;;;;;;8224952;28;20052;-61
2024/01/19 09:02:58;;;;;;;9.90;5.13;;;;;;;;;;8221479;28;20717;-59
2024/01/19 09:06:58;;;;;;;6.63;4.93;;;;;;;;;;8231713;28;20030;-61
2024/01/19 09:10:59;;;;;;;9.15;5.00;;;;;;;;;;8230663;28;20273;-61
2024/01/19 09:14:59;;;;;;;9.40;4.55;;;;;;;;;;8217673;28;20030;-60
2024/01/19 09:18:59;;;;;;;13.65;4.57;;;;;;;;;;8226703;28;20048;-62
2024/01/19 09:22:59;;;;;;;8.30;5.13;;;;;;;;;;8223643;28;20220;-61
2024/01/19 09:27:00;;;;;;;11.98;5.07;;;;;;;;;;8225617;28;20483;-62
2024/01/19 09:31:00;;;;;;;7.50;4.70;;;;;;;;;;8224279;28;20030;-60
2024/01/19 09:35:00;;;;;;;8.45;5.20;;;;;;;;;;8221626;28;20307;-61
2024/01/19 09:39:00;;;;;;;7.25;4.75;;;;;;;;;;8232366;28;20096;-65
2024/01/19 09:43:01;;;;;;;10.18;6.47;;;;;;;;;;8219693;28;20033;-62
2024/01/19 09:47:04;;;;;;;13.07;9.40;;;;;;;;;;8224181;28;20060;-62
2024/01/19 09:51:07;;;;;;;20.85;11.70;;;;;;;;;;8227406;28;20026;-63
2024/01/19 09:55:11;;;;;;;26.17;16.05;;;;;;;;;;8223049;28;20623;-62
2024/01/19 09:59:13;;;;;;;39.83;24.52;;;;;;;;;;8224818;28;20083;-62
2024/01/19 10:03:16;;;;;;;13.77;8.05;;;;;;;;;;8211124;28;20056;-62
2024/01/19 10:07:16;;;;;;;14.15;7.18;;;;;;;;;;8208561;28;20485;-61
2024/01/19 10:11:16;;;;;;;12.75;6.38;;;;;;;;;;8213772;28;20026;-61
2024/01/19 10:15:16;;;;;;;14.25;6.95;;;;;;;;;;8211910;28;20761;-61
2024/01/19 10:19:20;;;;;;;13.65;6.75;;;;;;;;;;8213522;28;20033;-61
2024/01/19 10:23:21;;;;;;;15.63;9.40;;;;;;;;;;8214894;28;20549;-61
2024/01/19 10:27:35;;;;;;;22.00;15.82;;;;;;;;;;8215306;28;20423;-60
2024/01/19 10:31:35;;;;;;;8.40;4.65;;;;;;;;;;8217131;28;20466;-60
2024/01/19 10:35:37;;;;;;;11.27;5.30;;;;;;;;;;8224459;28;20018;-60
2024/01/19 10:39:37;;;;;;;10.30;5.30;;;;;;;;;;8217136;28;20048;-61
2024/01/19 10:43:38;;;;;;;9.70;6.00;;;;;;;;;;8218964;28;20022;-61
2024/01/19 10:47:42;;;;;;;12.15;7.25;;;;;;;;;;8214506;28;20772;-60
2024/01/19 10:51:43;;;;;;;;;;;;;;;;;;8217880;28;20413;-61
2024/01/19 10:55:46;;;;;;;10.60;5.80;;;;;;;;;;8217497;28;19987;-61
2024/01/19 10:59:46;;;;;;;9.18;6.25;;;;;;;;;;8213530;28;20215;-61
2024/01/19 11:03:47;;;;;;;8.63;5.15;;;;;;;;;;8217386;28;20058;-61
2024/01/19 11:07:49;;;;;;;15.38;5.72;;;;;;;;;;8216008;28;20494;-61
2024/01/19 11:11:57;;;;;;;11.93;7.57;;;;;;;;;;8213251;28;20038;-61
2024/01/19 11:15:59;;;;;;;9.25;5.45;;;;;;;;;;8217662;28;20052;-62
2024/01/19 11:19:59;;;;;;;9.57;4.82;;;;;;;;;;8222343;28;20495;-61
2024/01/19 11:23:59;;;;;;;11.50;6.03;;;;;;;;;;8215882;28;20081;-61
2024/01/19 11:28:05;;;;;;;9.02;6.43;;;;;;;;;;8215273;28;20472;-60
2024/01/19 11:32:05;;;;;;;23.92;17.10;;;;;;;;;;8210591;28;20037;-61
2024/01/19 11:36:05;;;;;;;10.00;6.03;;;;;;;;;;8215404;28;20034;-60
2024/01/19 11:40:06;;;;;;;12.43;8.52;;;;;;;;;;8216112;28;20292;-60
2024/01/19 11:44:07;;;;;;;12.15;6.18;;;;;;;;;;8215539;28;20023;-61
2024/01/19 11:48:07;;;;;;;8.63;4.55;;;;;;;;;;8215111;28;20750;-61
2024/01/19 11:52:20;;;;;;;8.32;4.30;;;;;;;;;;8215376;28;20026;-62
2024/01/19 11:56:21;;;;;;;6.32;4.32;;;;;;;;;;8214184;28;20062;-61
2024/01/19 12:00:22;;;;;;;10.05;5.18;;;;;;;;;;8214077;28;20021;-61
2024/01/19 12:04:24;;;;;;;8.82;5.07;;;;;;;;;;8219034;28;20505;-61
2024/01/19 12:08:24;;;;;;;10.70;6.72;;;;;;;;;;8215967;28;20058;-62
2024/01/19 12:12:25;;;;;;;14.45;10.43;;;;;;;;;;8210287;28;20033;-62
2024/01/19 12:16:26;;;;;;;12.20;5.40;;;;;;;;;;8213230;28;20043;-61
2024/01/19 12:20:26;;;;;;;8.35;5.47;;;;;;;;;;8215826;28;20231;-62
2024/01/19 12:24:26;;;;;;;11.57;6.07;;;;;;;;;;8216100;28;20128;-60
2024/01/19 12:28:27;;;;;;;28.83;14.55;;;;;;;;;;8213710;28;20529;-62
2024/01/19 12:32:27;;;;;;;18.65;10.15;;;;;;;;;;8213055;28;20045;-62
2024/01/19 12:36:27;;;;;;;17.73;9.57;;;;;;;;;;8216658;28;20299;-62
2024/01/19 12:40:28;;;;;;;20.90;6.93;;;;;;;;;;8216214;28;20034;-62
2024/01/19 12:44:28;;;;;;;13.88;8.32;;;;;;;;;;8214675;28;20539;-61
2024/01/19 12:48:28;;;;;;;14.30;6.90;;;;;;;;;;8211356;28;20473;-62
2024/01/19 12:52:29;;;;;;;9.25;5.72;;;;;;;;;;8219078;28;20616;-62
2024/01/19 12:56:31;;;;;;;9.57;6.05;;;;;;;;;;8214298;28;20422;-62
2024/01/19 13:00:31;;;;;;;8.07;4.93;;;;;;;;;;8209921;28;20052;-62
2024/01/19 13:04:33;;;;;;;14.48;7.32;;;;;;;;;;8212299;28;20019;-62
2024/01/19 13:08:33;;;;;;;11.23;5.72;;;;;;;;;;8208365;28;20028;-62
2024/01/19 13:12:34;;;;;;;26.73;18.65;;;;;;;;;;8213036;28;20529;-62
2024/01/19 13:16:49;;;;;;;12.88;6.32;;;;;;;;;;8213674;28;20125;-62
2024/01/19 13:20:50;;;;;;;10.50;6.03;;;;;;;;;;8212537;28;20539;-62
2024/01/19 13:24:52;;;;;;;15.55;7.15;;;;;;;;;;8212745;28;20168;-62
2024/01/19 13:28:52;;;;;;;11.02;6.03;;;;;;;;;;8213790;28;21279;-62
2024/01/19 13:32:52;;;;;;;14.77;9.18;;;;;;;;;;8211742;28;22776;-62
2024/01/19 13:36:53;;;;;;;10.93;6.72;;;;;;;;;;8215924;28;20563;-61
2024/01/19 13:40:53;;;;;;;11.27;6.78;;;;;;;;;;8215050;28;22691;-61
2024/01/19 13:44:53;;;;;;;23.30;11.50;;;;;;;;;;8214581;28;20384;-61
2024/01/19 13:48:53;;;;;;;17.58;9.95;;;;;;;;;;8218517;28;20233;-61
2024/01/19 13:52:53;;;;;;;31.92;15.55;;;;;;;;;;8223703;28;20478;-61
2024/01/19 13:56:53;;;;;;;20.90;10.57;;;;;;;;;;8221515;28;20649;-61
2024/01/19 14:00:54;;;;;;;17.67;8.63;;;;;;;;;;8216208;28;20719;-61
2024/01/19 14:04:56;;;;;;;27.35;12.35;;;;;;;;;;8216142;28;20611;-61
2024/01/19 14:08:56;;;;;;;11.35;7.28;;;;;;;;;;8216915;28;20025;-61
2024/01/19 14:12:57;;;;;;;15.65;9.45;;;;;;;;;;8217039;28;20516;-61
2024/01/19 14:16:57;;;;;;;13.35;8.30;;;;;;;;;;8216625;28;20035;-62
2024/01/19 14:20:57;;;;;;;17.60;8.20;;;;;;;;;;8218318;28;22975;-61
2024/01/19 14:24:57;;;;;;;23.27;9.98;;;;;;;;;;8218993;28;20352;-61
2024/01/19 14:28:57;;;;;;;18.92;8.10;;;;;;;;;;8216888;28;20061;-61
2024/01/19 14:32:58;;;;;;;37.47;15.52;;;;;;;;;;8220655;28;20091;-60
2024/01/19 14:36:59;;;;;;;30.65;12.75;;;;;;;;;;8217337;28;20022;-62
2024/01/19 14:40:59;;;;;;;20.85;8.75;;;;;;;;;;8216612;28;20526;-62
2024/01/19 14:44:59;;;;;;;21.58;8.60;;;;;;;;;;8213773;28;20184;-62
2024/01/19 14:49:01;;;;;;;18.73;8.98;;;;;;;;;;8215776;28;20522;-62
2024/01/19 14:53:02;;;;;;;35.10;13.77;;;;;;;;;;8215355;28;20050;-62
2024/01/19 14:57:03;;;;;;;29.98;13.15;;;;;;;;;;8207278;28;20082;-62
2024/01/19 15:01:03;;;;;;;31.23;12.32;;;;;;;;;;8204646;28;20225;-63
2024/01/19 15:05:04;;;;;;;66.93;25.10;;;;;;;;;;8204557;28;20022;-63
2024/01/19 15:09:04;;;;;;;40.63;16.30;;;;;;;;;;8210267;28;20529;-61
2024/01/19 15:13:04;;;;;;;28.85;13.00;;;;;;;;;;8212011;28;20148;-62
2024/01/19 15:17:05;;;;;;;43.10;16.05;;;;;;;;;;8212500;28;20089;-61
2024/01/19 15:21:05;;;;;;;27.65;12.40;;;;;;;;;;8217231;28;20022;-61
2024/01/19 15:25:11;;;;;;;26.35;11.23;;;;;;;;;;8218850;28;20032;-62
2024/01/19 15:29:13;;;;;;;28.02;12.52;;;;;;;;;;8216005;28;20030;-63
2024/01/19 15:33:15;;;;;;;22.15;10.50;;;;;;;;;;8217519;28;20089;-63
2024/01/19 15:37:15;;;;;;;20.42;9.65;;;;;;;;;;8214772;28;20018;-63
2024/01/19 15:41:25;;;;;;;19.33;9.38;;;;;;;;;;8214845;28;20030;-63
2024/01/19 15:45:25;;;;;;;13.15;7.07;;;;;;;;;;8213555;28;20093;-63
2024/01/19 15:49:26;;;;;;;11.60;6.45;;;;;;;;;;8215331;28;20030;-61
2024/01/19 15:53:26;;;;;;;13.73;7.28;;;;;;;;;;8215539;28;20034;-61
2024/01/19 15:57:27;;;;;;;25.55;10.07;;;;;;;;;;8214082;28;20029;-61
2024/01/19 16:01:27;;;;;;;17.92;8.88;;;;;;;;;;8218151;28;20045;-63
2024/01/19 16:05:27;;;;;;;21.92;9.35;;;;;;;;;;8219308;28;20458;-63
2024/01/19 16:09:27;;;;;;;25.50;10.60;;;;;;;;;;8216210;28;20096;-63
2024/01/19 16:13:29;;;;;;;25.63;12.48;;;;;;;;;;8219779;28;20583;-63
2024/01/19 16:17:31;;;;;;;25.27;10.35;;;;;;;;;;8214919;28;21065;-63
2024/01/19 16:21:32;;;;;;;26.75;10.48;;;;;;;;;;8214173;28;20064;-63
2024/01/19 16:25:32;;;;;;;18.00;9.15;;;;;;;;;;8219664;28;20498;-63
2024/01/19 16:29:33;;;;;;;14.93;7.60;;;;;;;;;;8213879;28;20737;-63
2024/01/19 16:33:33;;;;;;;14.55;8.63;;;;;;;;;;8214045;28;20066;-63
2024/01/19 16:37:33;;;;;;;12.43;7.35;;;;;;;;;;8219567;28;20377;-63
2024/01/19 16:41:37;;;;;;;12.48;8.18;;;;;;;;;;8215590;28;20038;-62
2024/01/19 16:45:37;;;;;;;17.90;9.33;;;;;;;;;;8213587;28;20049;-63
2024/01/19 16:49:38;;;;;;;28.40;11.82;;;;;;;;;;8214489;28;20029;-62
2024/01/19 16:53:38;;;;;;;24.77;10.43;;;;;;;;;;8213265;28;20073;-62
2024/01/19 16:57:38;;;;;;;25.52;10.88;;;;;;;;;;8214137;28;20054;-62
2024/01/19 17:01:38;;;;;;;26.27;11.05;;;;;;;;;;8214019;28;20439;-62
2024/01/19 17:05:38;;;;;;;20.38;10.23;;;;;;;;;;8212623;28;20030;-62
2024/01/19 17:09:39;;;;;;;21.15;10.20;;;;;;;;;;8219708;28;20339;-62
2024/01/19 17:13:39;;;;;;;25.75;11.77;;;;;;;;;;8209500;28;20447;-62
2024/01/19 17:17:42;;;;;;;27.90;11.13;;;;;;;;;;8212485;28;20638;-62
2024/01/19 17:21:43;;;;;;;36.08;12.55;;;;;;;;;;8218257;28;20018;-61
2024/01/19 17:25:45;;;;;;;22.65;10.93;;;;;;;;;;8218197;28;20550;-62
2024/01/19 17:29:46;;;;;;;36.33;16.05;;;;;;;;;;8218734;28;20030;-62
2024/01/19 17:33:46;;;;;;;39.47;15.35;;;;;;;;;;8216015;28;20964;-62
2024/01/19 17:37:46;;;;;;;25.10;10.52;;;;;;;;;;8217063;28;20117;-62
2024/01/19 17:41:46;;;;;;;19.00;10.00;;;;;;;;;;8216201;28;20026;-62
2024/01/19 17:45:46;;;;;;;22.73;9.75;;;;;;;;;;8218758;28;20607;-62
2024/01/19 17:49:46;;;;;;;21.77;10.27;;;;;;;;;;8217399;28;20144;-62
2024/01/19 17:53:47;;;;;;;23.17;10.68;;;;;;;;;;8219946;28;20506;-62
2024/01/19 17:57:52;;;;;;;26.25;12.15;;;;;;;;;;8217589;28;20018;-62
2024/01/19 18:01:52;;;;;;;19.05;10.18;;;;;;;;;;8216483;28;21299;-62
2024/01/19 18:05:52;;;;;;;18.00;9.32;;;;;;;;;;8217410;28;21159;-62
2024/01/19 18:09:52;;;;;;;15.80;8.60;;;;;;;;;;8217326;28;20633;-63
2024/01/19 18:13:55;;;;;;;20.15;9.43;;;;;;;;;;8218805;28;20265;-62
2024/01/19 18:17:55;;;;;;;21.92;10.32;;;;;;;;;;8213863;28;21460;-62
2024/01/19 18:21:56;;;;;;;25.55;12.13;;;;;;;;;;8214880;28;20663;-63
2024/01/19 18:25:56;;;;;;;16.38;8.20;;;;;;;;;;8215014;28;20018;-63
2024/01/19 18:29:56;;;;;;;18.65;8.88;;;;;;;;;;8214845;28;20156;-63
2024/01/19 18:33:56;;;;;;;21.73;9.38;;;;;;;;;;8216155;28;20049;-63
2024/01/19 18:37:57;;;;;;;13.77;8.07;;;;;;;;;;8213157;28;20450;-63
2024/01/19 18:41:57;;;;;;;13.02;7.90;;;;;;;;;;8210482;28;20547;-63
2024/01/19 18:45:57;;;;;;;17.92;7.78;;;;;;;;;;8215193;28;20073;-62
2024/01/19 18:49:58;;;;;;;13.90;7.45;;;;;;;;;;8207338;28;20031;-63
2024/01/19 18:53:58;;;;;;;16.13;7.80;;;;;;;;;;8214803;28;20306;-63
2024/01/19 18:57:59;;;;;;;18.25;8.27;;;;;;;;;;8211042;28;20542;-62
2024/01/19 19:01:59;;;;;;;14.98;7.30;;;;;;;;;;8205326;28;20049;-61
2024/01/19 19:05:59;;;;;;;15.82;7.93;;;;;;;;;;8208392;28;20053;-61
2024/01/19 19:09:59;;;;;;;14.63;7.63;;;;;;;;;;8203787;28;20098;-61
2024/01/19 19:14:00;;;;;;;13.93;7.47;;;;;;;;;;8207246;28;21516;-60
2024/01/19 19:18:00;;;;;;;17.90;8.35;;;;;;;;;;8208057;28;20038;-61
2024/01/19 19:22:00;;;;;;;15.50;7.67;;;;;;;;;;8204986;28;21963;-63
2024/01/19 19:26:09;;;;;;;19.15;8.80;;;;;;;;;;8208080;28;20808;-63
2024/01/19 19:30:14;;;;;;;19.05;9.80;;;;;;;;;;8205718;28;20148;-63
2024/01/19 19:34:14;;;;;;;20.75;9.65;;;;;;;;;;8209585;28;20029;-63
2024/01/19 19:38:14;;;;;;;17.33;9.07;;;;;;;;;;8223227;28;20399;-63
2024/01/19 19:42:14;;;;;;;19.23;9.07;;;;;;;;;;8208773;28;20133;-63
2024/01/19 19:46:14;;;;;;;18.52;9.07;;;;;;;;;;8204465;28;20282;-64
2024/01/19 19:50:15;;;;;;;19.45;9.23;;;;;;;;;;8206308;28;20034;-63
2024/01/19 19:54:15;;;;;;;19.85;9.18;;;;;;;;;;8207824;28;20025;-63
2024/01/19 19:58:15;;;;;;;18.67;8.88;;;;;;;;;;8206486;28;20022;-64
2024/01/19 20:02:15;;;;;;;16.02;8.60;;;;;;;;;;8207219;28;20045;-63
2024/01/19 20:06:20;;;;;;;22.55;9.95;;;;;;;;;;8199251;28;20554;-64
2024/01/19 20:10:21;;;;;;;26.77;10.90;;;;;;;;;;8199760;28;20029;-63
2024/01/19 20:14:21;;;;;;;15.80;8.68;;;;;;;;;;8199658;28;20026;-63
2024/01/19 20:18:21;;;;;;;17.55;9.55;;;;;;;;;;8198620;28;20249;-64
2024/01/19 20:22:21;;;;;;;20.30;10.43;;;;;;;;;;8203086;28;20032;-62
2024/01/19 20:26:22;;;;;;;20.65;10.05;;;;;;;;;;8202498;28;21026;-62
2024/01/19 20:30:22;;;;;;;19.63;10.15;;;;;;;;;;8199333;28;20058;-63
2024/01/19 20:34:22;;;;;;;16.05;8.88;;;;;;;;;;8204232;28;20449;-63
2024/01/19 20:38:22;;;;;;;12.00;7.32;;;;;;;;;;8203593;28;20027;-63
2024/01/19 20:42:23;;;;;;;16.17;9.27;;;;;;;;;;8205375;28;20565;-63
2024/01/19 20:46:23;;;;;;;16.38;7.70;;;;;;;;;;8205545;28;20806;-64
2024/01/19 20:50:23;;;;;;;15.40;8.07;;;;;;;;;;8211340;28;20030;-63
2024/01/19 20:54:24;;;;;;;17.60;8.57;;;;;;;;;;8206800;28;20491;-64
2024/01/19 20:58:27;;;;;;;16.77;8.50;;;;;;;;;;8210920;28;20502;-63
2024/01/19 21:02:27;;;;;;;18.08;9.93;;;;;;;;;;8213044;28;20133;-63
2024/01/19 21:06:27;;;;;;;16.70;9.35;;;;;;;;;;8212809;28;20054;-63
2024/01/19 21:10:28;;;;;;;12.45;7.80;;;;;;;;;;8211805;28;20026;-63
2024/01/19 21:14:28;;;;;;;14.30;7.25;;;;;;;;;;8217464;28;20375;-63
2024/01/19 21:18:29;;;;;;;17.30;9.20;;;;;;;;;;8214230;28;20292;-63
2024/01/19 21:22:30;;;;;;;19.40;9.32;;;;;;;;;;8217900;28;20038;-63
2024/01/19 21:26:30;;;;;;;13.60;7.57;;;;;;;;;;8219323;28;20026;-63
2024/01/19 21:30:30;;;;;;;14.80;7.63;;;;;;;;;;8213668;28;20125;-63
2024/01/19 21:34:30;;;;;;;15.75;8.45;;;;;;;;;;8218887;28;20026;-63
2024/01/19 21:38:31;;;;;;;14.13;7.95;;;;;;;;;;8212463;28;20021;-63
2024/01/19 21:42:31;;;;;;;17.75;7.97;;;;;;;;;;8212024;28;20026;-61
2024/01/19 21:46:31;;;;;;;14.73;8.27;;;;;;;;;;8207509;28;20034;-61
2024/01/19 21:50:31;;;;;;;10.43;6.47;;;;;;;;;;8210469;28;20460;-61
2024/01/19 21:54:31;;;;;;;12.93;7.38;;;;;;;;;;8212369;28;20026;-61
2024/01/19 21:58:31;;;;;;;10.60;6.73;;;;;;;;;;8216111;28;20112;-60
2024/01/19 22:02:32;;;;;;;11.93;5.50;;;;;;;;;;8211105;28;20295;-60
2024/01/19 22:06:32;;;;;;;7.43;4.57;;;;;;;;;;8216848;28;20058;-61
2024/01/19 22:10:32;;;;;;;11.45;4.50;;;;;;;;;;8209413;28;21257;-61
2024/01/19 22:14:32;;;;;;;7.70;4.53;;;;;;;;;;8215297;28;20030;-61
2024/01/19 22:18:36;;;;;;;8.93;4.97;;;;;;;;;;8214001;28;20490;-61
2024/01/19 22:22:36;;;;;;;12.32;5.68;;;;;;;;;;8214415;28;20018;-62
2024/01/19 22:26:38;;;;;;;8.98;4.53;;;;;;;;;;8215154;28;20026;-62
2024/01/19 22:30:38;;;;;;;8.90;4.07;;;;;;;;;;8214033;28;20490;-62
2024/01/19 22:34:38;;;;;;;7.50;4.82;;;;;;;;;;8213465;28;20034;-62
2024/01/19 22:38:39;;;;;;;7.80;4.15;;;;;;;;;;8214980;28;20022;-62
2024/01/19 22:42:39;;;;;;;6.18;3.20;;;;;;;;;;8215382;28;20650;-63
2024/01/19 22:46:39;;;;;;;7.03;4.40;;;;;;;;;;8213374;28;20108;-63
2024/01/19 22:50:39;;;;;;;8.32;4.70;;;;;;;;;;8214762;28;20809;-63
2024/01/19 22:54:39;;;;;;;8.43;4.32;;;;;;;;;;8210848;28;20277;-63
2024/01/19 22:58:41;;;;;;;5.55;3.55;;;;;;;;;;8212616;28;20037;-63
2024/01/19 23:02:41;;;;;;;6.63;3.80;;;;;;;;;;8217230;28;20038;-63
2024/01/19 23:06:41;;;;;;;8.43;4.55;;;;;;;;;;8212733;28;20117;-63
2024/01/19 23:10:41;;;;;;;9.73;4.80;;;;;;;;;;8215390;28;20022;-63
2024/01/19 23:14:42;;;;;;;6.18;3.95;;;;;;;;;;8215571;28;20022;-63
2024/01/19 23:18:42;;;;;;;8.20;4.30;;;;;;;;;;8215612;28;20034;-63
2024/01/19 23:22:42;;;;;;;6.40;4.07;;;;;;;;;;8215520;28;20313;-63
2024/01/19 23:26:42;;;;;;;5.68;4.05;;;;;;;;;;8216335;28;20137;-68
2024/01/19 23:30:43;;;;;;;5.55;3.38;;;;;;;;;;8222310;28;20331;-63
2024/01/19 23:34:43;;;;;;;5.35;3.65;;;;;;;;;;8214262;28;20053;-63
2024/01/19 23:38:43;;;;;;;7.35;4.15;;;;;;;;;;8213692;28;20450;-63
2024/01/19 23:42:43;;;;;;;7.30;4.10;;;;;;;;;;8219384;28;20036;-62